CheckWX is a tool to help pilots better visualize weather data.  It is not intended as a substitute for an official pre-flight weather briefing.

22:32:00 UTC

KXNA TAF
Northwest Arkansas Regional Airport
Fayetteville/Springdale/Rogers, Arkansas, USA
KXNA 251724Z 2518/2618 34011KT P6SM OVC015 FM251900 33013KT P6SM BKN035 FM260500 33007KT P6SM SKC

Apr-25@
18:00 UTC

Apr-25 @ 18:00 UTC

Apr-25@
19:00 UTC

Apr-25 @ 19:00 UTC

KXNA 251724Z 2518/2618 34011KT P6SM OVC015

Expired

Wind
  • 340° at 11 KTS
Cloud Levels
  • Overcast at 1,500' AGL

Apr-25@
19:00 UTC

Apr-25 @ 19:00 UTC

Apr-26@
05:00 UTC

Apr-26 @ 05:00 UTC

FM251900 33013KT P6SM BKN035

From

From Standard forecast or significant change

Wind
  • 330° at 13 KTS
Cloud Levels
  • Broken at 3,500' AGL

Apr-26@
05:00 UTC

Apr-26 @ 05:00 UTC

Apr-26@
18:00 UTC

Apr-26 @ 18:00 UTC

FM260500 33007KT P6SM SKC

From

From Standard forecast or significant change

Wind
  • 330° at 7 KTS
Cloud Levels
  • Clear skies